sensor_id;sensor_type;location;lat;lon;timestamp;P1;durP1;ratioP1;P2;durP2;ratioP2
17253;SDS011;32542;52.832;13.816;2023-06-10T00:02:34;9.02;;;2.85;;
17253;SDS011;32542;52.832;13.816;2023-06-10T00:05:37;5.65;;;2.65;;
17253;SDS011;32542;52.832;13.816;2023-06-10T00:08:41;8.73;;;3.03;;
17253;SDS011;32542;52.832;13.816;2023-06-10T00:11:44;5.25;;;2.90;;
17253;SDS011;32542;52.832;13.816;2023-06-10T00:14:47;5.75;;;2.90;;
17253;SDS011;32542;52.832;13.816;2023-06-10T00:17:53;7.20;;;2.63;;
17253;SDS011;32542;52.832;13.816;2023-06-10T00:20:56;7.20;;;3.08;;
17253;SDS011;32542;52.832;13.816;2023-06-10T00:24:06;5.28;;;2.60;;
17253;SDS011;32542;52.832;13.816;2023-06-10T00:27:13;6.63;;;2.88;;
17253;SDS011;32542;52.832;13.816;2023-06-10T00:30:16;7.22;;;2.83;;
17253;SDS011;32542;52.832;13.816;2023-06-10T00:33:21;7.10;;;2.97;;
17253;SDS011;32542;52.832;13.816;2023-06-10T00:36:23;10.35;;;3.33;;
17253;SDS011;32542;52.832;13.816;2023-06-10T00:39:26;8.30;;;2.70;;
17253;SDS011;32542;52.832;13.816;2023-06-10T00:42:29;4.90;;;2.60;;
17253;SDS011;32542;52.832;13.816;2023-06-10T00:45:32;6.20;;;2.60;;
17253;SDS011;32542;52.832;13.816;2023-06-10T00:48:37;6.22;;;2.67;;
17253;SDS011;32542;52.832;13.816;2023-06-10T00:51:40;5.70;;;2.83;;
17253;SDS011;32542;52.832;13.816;2023-06-10T00:54:43;9.55;;;3.05;;
17253;SDS011;32542;52.832;13.816;2023-06-10T00:57:49;5.95;;;2.95;;
17253;SDS011;32542;52.832;13.816;2023-06-10T01:00:53;5.82;;;2.83;;
17253;SDS011;32542;52.832;13.816;2023-06-10T01:03:58;5.88;;;2.80;;
17253;SDS011;32542;52.832;13.816;2023-06-10T01:07:03;6.47;;;2.92;;
17253;SDS011;32542;52.832;13.816;2023-06-10T01:10:15;6.18;;;3.15;;
17253;SDS011;32542;52.832;13.816;2023-06-10T01:13:23;6.28;;;3.00;;
17253;SDS011;32542;52.832;13.816;2023-06-10T01:16:31;6.28;;;2.80;;
17253;SDS011;32542;52.832;13.816;2023-06-10T01:19:38;7.60;;;2.67;;
17253;SDS011;32542;52.832;13.816;2023-06-10T01:22:43;4.90;;;2.72;;
17253;SDS011;32542;52.832;13.816;2023-06-10T01:25:48;4.80;;;2.42;;
17253;SDS011;32542;52.832;13.816;2023-06-10T01:28:57;6.25;;;2.80;;
17253;SDS011;32542;52.832;13.816;2023-06-10T01:32:04;6.47;;;2.90;;
17253;SDS011;32542;52.832;13.816;2023-06-10T01:35:12;7.90;;;2.88;;
17253;SDS011;32542;52.832;13.816;2023-06-10T01:38:18;7.63;;;3.25;;
17253;SDS011;32542;52.832;13.816;2023-06-10T01:41:22;7.30;;;3.13;;
17253;SDS011;32542;52.832;13.816;2023-06-10T01:44:26;11.93;;;2.88;;
17253;SDS011;32542;52.832;13.816;2023-06-10T01:47:29;6.35;;;3.15;;
17253;SDS011;32542;52.832;13.816;2023-06-10T01:50:34;5.93;;;2.90;;
17253;SDS011;32542;52.832;13.816;2023-06-10T01:53:39;11.65;;;3.35;;
17253;SDS011;32542;52.832;13.816;2023-06-10T01:56:42;6.80;;;2.50;;
17253;SDS011;32542;52.832;13.816;2023-06-10T01:59:45;7.03;;;2.90;;
17253;SDS011;32542;52.832;13.816;2023-06-10T02:02:49;8.98;;;3.03;;
17253;SDS011;32542;52.832;13.816;2023-06-10T02:05:52;6.28;;;2.80;;
17253;SDS011;32542;52.832;13.816;2023-06-10T02:08:56;7.93;;;3.03;;
17253;SDS011;32542;52.832;13.816;2023-06-10T02:12:01;4.85;;;3.00;;
17253;SDS011;32542;52.832;13.816;2023-06-10T02:15:05;5.38;;;2.88;;
17253;SDS011;32542;52.832;13.816;2023-06-10T02:18:08;5.93;;;2.88;;
17253;SDS011;32542;52.832;13.816;2023-06-10T02:21:13;6.30;;;2.97;;
17253;SDS011;32542;52.832;13.816;2023-06-10T02:24:17;6.53;;;3.00;;
17253;SDS011;32542;52.832;13.816;2023-06-10T02:27:20;6.72;;;3.13;;
17253;SDS011;32542;52.832;13.816;2023-06-10T02:30:23;7.03;;;2.90;;
17253;SDS011;32542;52.832;13.816;2023-06-10T02:33:26;6.72;;;2.90;;
17253;SDS011;32542;52.832;13.816;2023-06-10T02:36:29;6.40;;;2.80;;
17253;SDS011;32542;52.832;13.816;2023-06-10T02:39:34;11.20;;;3.10;;
17253;SDS011;32542;52.832;13.816;2023-06-10T02:42:41;5.60;;;2.83;;
17253;SDS011;32542;52.832;13.816;2023-06-10T02:45:44;6.18;;;2.60;;
17253;SDS011;32542;52.832;13.816;2023-06-10T02:48:48;11.65;;;3.00;;
17253;SDS011;32542;52.832;13.816;2023-06-10T02:51:56;5.40;;;2.90;;
17253;SDS011;32542;52.832;13.816;2023-06-10T02:55:01;5.93;;;2.88;;
17253;SDS011;32542;52.832;13.816;2023-06-10T02:58:05;5.35;;;2.72;;
17253;SDS011;32542;52.832;13.816;2023-06-10T03:01:08;4.75;;;2.65;;
17253;SDS011;32542;52.832;13.816;2023-06-10T03:04:21;4.88;;;2.50;;
17253;SDS011;32542;52.832;13.816;2023-06-10T03:07:33;7.97;;;3.17;;
17253;SDS011;32542;52.832;13.816;2023-06-10T03:10:38;5.30;;;2.92;;
17253;SDS011;32542;52.832;13.816;2023-06-10T03:13:42;6.78;;;2.75;;
17253;SDS011;32542;52.832;13.816;2023-06-10T03:16:47;6.57;;;3.05;;
17253;SDS011;32542;52.832;13.816;2023-06-10T03:19:51;7.65;;;2.92;;
17253;SDS011;32542;52.832;13.816;2023-06-10T03:22:54;6.82;;;2.85;;
17253;SDS011;32542;52.832;13.816;2023-06-10T03:25:59;7.88;;;2.85;;
17253;SDS011;32542;52.832;13.816;2023-06-10T03:29:03;5.20;;;2.83;;
17253;SDS011;32542;52.832;13.816;2023-06-10T03:32:07;6.38;;;2.75;;
17253;SDS011;32542;52.832;13.816;2023-06-10T03:35:12;8.00;;;3.40;;
17253;SDS011;32542;52.832;13.816;2023-06-10T03:38:16;7.80;;;3.42;;
17253;SDS011;32542;52.832;13.816;2023-06-10T03:41:21;8.98;;;2.88;;
17253;SDS011;32542;52.832;13.816;2023-06-10T03:44:25;6.95;;;3.20;;
17253;SDS011;32542;52.832;13.816;2023-06-10T03:47:32;7.35;;;2.75;;
17253;SDS011;32542;52.832;13.816;2023-06-10T03:50:38;6.90;;;3.00;;
17253;SDS011;32542;52.832;13.816;2023-06-10T03:53:41;5.30;;;2.72;;
17253;SDS011;32542;52.832;13.816;2023-06-10T03:56:47;6.50;;;2.95;;
17253;SDS011;32542;52.832;13.816;2023-06-10T03:59:50;7.20;;;3.25;;
17253;SDS011;32542;52.832;13.816;2023-06-10T04:02:54;6.30;;;3.00;;
17253;SDS011;32542;52.832;13.816;2023-06-10T04:06:08;8.00;;;3.20;;
17253;SDS011;32542;52.832;13.816;2023-06-10T04:09:11;7.35;;;3.03;;
17253;SDS011;32542;52.832;13.816;2023-06-10T04:12:16;5.47;;;2.85;;
17253;SDS011;32542;52.832;13.816;2023-06-10T04:15:19;5.75;;;2.70;;
17253;SDS011;32542;52.832;13.816;2023-06-10T04:18:23;7.15;;;2.80;;
17253;SDS011;32542;52.832;13.816;2023-06-10T04:21:28;7.20;;;3.17;;
17253;SDS011;32542;52.832;13.816;2023-06-10T04:24:31;7.10;;;3.00;;
17253;SDS011;32542;52.832;13.816;2023-06-10T04:27:36;8.35;;;3.10;;
17253;SDS011;32542;52.832;13.816;2023-06-10T04:30:39;7.45;;;3.28;;
17253;SDS011;32542;52.832;13.816;2023-06-10T04:33:43;6.70;;;3.20;;
17253;SDS011;32542;52.832;13.816;2023-06-10T04:36:47;5.60;;;3.00;;
17253;SDS011;32542;52.832;13.816;2023-06-10T04:39:50;5.68;;;2.80;;
17253;SDS011;32542;52.832;13.816;2023-06-10T04:42:54;4.65;;;2.75;;
17253;SDS011;32542;52.832;13.816;2023-06-10T04:45:57;7.57;;;3.03;;
17253;SDS011;32542;52.832;13.816;2023-06-10T04:49:02;5.95;;;3.08;;
17253;SDS011;32542;52.832;13.816;2023-06-10T04:52:06;6.75;;;3.30;;
17253;SDS011;32542;52.832;13.816;2023-06-10T04:55:13;6.60;;;3.00;;
17253;SDS011;32542;52.832;13.816;2023-06-10T04:58:17;7.40;;;3.10;;
17253;SDS011;32542;52.832;13.816;2023-06-10T05:01:20;6.63;;;3.28;;
17253;SDS011;32542;52.832;13.816;2023-06-10T05:04:23;8.15;;;3.13;;
17253;SDS011;32542;52.832;13.816;2023-06-10T05:07:26;7.72;;;3.20;;
17253;SDS011;32542;52.832;13.816;2023-06-10T05:10:29;5.38;;;3.08;;
17253;SDS011;32542;52.832;13.816;2023-06-10T05:13:34;5.93;;;2.88;;
17253;SDS011;32542;52.832;13.816;2023-06-10T05:16:37;4.65;;;2.90;;
17253;SDS011;32542;52.832;13.816;2023-06-10T05:19:40;6.07;;;2.90;;
17253;SDS011;32542;52.832;13.816;2023-06-10T05:22:44;6.35;;;3.10;;
17253;SDS011;32542;52.832;13.816;2023-06-10T05:25:47;7.07;;;3.10;;
17253;SDS011;32542;52.832;13.816;2023-06-10T05:28:52;5.95;;;2.72;;
17253;SDS011;32542;52.832;13.816;2023-06-10T05:31:55;6.15;;;2.95;;
17253;SDS011;32542;52.832;13.816;2023-06-10T05:34:59;7.03;;;3.25;;
17253;SDS011;32542;52.832;13.816;2023-06-10T05:38:02;6.28;;;3.00;;
17253;SDS011;32542;52.832;13.816;2023-06-10T05:41:05;7.75;;;3.25;;
17253;SDS011;32542;52.832;13.816;2023-06-10T05:44:09;5.97;;;2.55;;
17253;SDS011;32542;52.832;13.816;2023-06-10T05:47:14;8.32;;;3.20;;
17253;SDS011;32542;52.832;13.816;2023-06-10T05:50:17;4.47;;;2.75;;
17253;SDS011;32542;52.832;13.816;2023-06-10T05:53:20;10.50;;;3.40;;
17253;SDS011;32542;52.832;13.816;2023-06-10T05:56:23;10.02;;;3.85;;
17253;SDS011;32542;52.832;13.816;2023-06-10T05:59:28;4.00;;;2.75;;
17253;SDS011;32542;52.832;13.816;2023-06-10T06:02:31;5.68;;;3.17;;
17253;SDS011;32542;52.832;13.816;2023-06-10T06:05:34;8.05;;;2.78;;
17253;SDS011;32542;52.832;13.816;2023-06-10T06:08:38;6.68;;;3.05;;
17253;SDS011;32542;52.832;13.816;2023-06-10T06:11:41;6.18;;;2.88;;
17253;SDS011;32542;52.832;13.816;2023-06-10T06:14:46;4.88;;;2.70;;
17253;SDS011;32542;52.832;13.816;2023-06-10T06:17:50;5.53;;;2.80;;
17253;SDS011;32542;52.832;13.816;2023-06-10T06:20:54;8.77;;;3.20;;
17253;SDS011;32542;52.832;13.816;2023-06-10T06:23:58;7.07;;;3.15;;
17253;SDS011;32542;52.832;13.816;2023-06-10T06:27:01;6.07;;;2.78;;
17253;SDS011;32542;52.832;13.816;2023-06-10T06:30:07;5.93;;;3.13;;
17253;SDS011;32542;52.832;13.816;2023-06-10T06:33:10;6.72;;;2.92;;
17253;SDS011;32542;52.832;13.816;2023-06-10T06:36:13;7.00;;;3.00;;
17253;SDS011;32542;52.832;13.816;2023-06-10T06:39:16;7.07;;;3.17;;
17253;SDS011;32542;52.832;13.816;2023-06-10T06:42:19;6.35;;;3.30;;
17253;SDS011;32542;52.832;13.816;2023-06-10T06:45:44;6.25;;;3.22;;
17253;SDS011;32542;52.832;13.816;2023-06-10T06:48:48;6.78;;;3.60;;
17253;SDS011;32542;52.832;13.816;2023-06-10T06:51:51;6.18;;;3.10;;
17253;SDS011;32542;52.832;13.816;2023-06-10T06:54:54;5.43;;;2.90;;
17253;SDS011;32542;52.832;13.816;2023-06-10T06:57:57;8.95;;;2.67;;
17253;SDS011;32542;52.832;13.816;2023-06-10T07:01:05;6.57;;;2.85;;
17253;SDS011;32542;52.832;13.816;2023-06-10T07:04:08;7.20;;;3.45;;
17253;SDS011;32542;52.832;13.816;2023-06-10T07:07:11;7.30;;;3.30;;
17253;SDS011;32542;52.832;13.816;2023-06-10T07:10:14;8.80;;;3.13;;
17253;SDS011;32542;52.832;13.816;2023-06-10T07:13:17;10.75;;;3.03;;
17253;SDS011;32542;52.832;13.816;2023-06-10T07:16:21;8.73;;;2.88;;
17253;SDS011;32542;52.832;13.816;2023-06-10T07:19:24;7.13;;;3.13;;
17253;SDS011;32542;52.832;13.816;2023-06-10T07:22:27;8.63;;;3.33;;
17253;SDS011;32542;52.832;13.816;2023-06-10T07:25:30;5.68;;;2.88;;
17253;SDS011;32542;52.832;13.816;2023-06-10T07:28:33;6.30;;;3.08;;
17253;SDS011;32542;52.832;13.816;2023-06-10T07:31:37;10.82;;;3.38;;
17253;SDS011;32542;52.832;13.816;2023-06-10T07:34:40;5.35;;;3.05;;
17253;SDS011;32542;52.832;13.816;2023-06-10T07:37:43;6.35;;;3.20;;
17253;SDS011;32542;52.832;13.816;2023-06-10T07:40:48;6.25;;;3.20;;
17253;SDS011;32542;52.832;13.816;2023-06-10T07:43:52;6.60;;;3.00;;
17253;SDS011;32542;52.832;13.816;2023-06-10T07:46:59;6.05;;;3.08;;
17253;SDS011;32542;52.832;13.816;2023-06-10T07:50:02;4.93;;;2.95;;
17253;SDS011;32542;52.832;13.816;2023-06-10T07:53:05;6.60;;;3.20;;
17253;SDS011;32542;52.832;13.816;2023-06-10T07:56:08;6.53;;;3.13;;
17253;SDS011;32542;52.832;13.816;2023-06-10T07:59:11;6.93;;;3.08;;
17253;SDS011;32542;52.832;13.816;2023-06-10T08:02:17;7.55;;;3.30;;
17253;SDS011;32542;52.832;13.816;2023-06-10T08:05:20;9.55;;;3.30;;
17253;SDS011;32542;52.832;13.816;2023-06-10T08:08:23;4.32;;;2.92;;
17253;SDS011;32542;52.832;13.816;2023-06-10T08:11:26;6.85;;;3.33;;
17253;SDS011;32542;52.832;13.816;2023-06-10T08:14:29;8.32;;;3.72;;
17253;SDS011;32542;52.832;13.816;2023-06-10T08:17:33;7.15;;;3.60;;
17253;SDS011;32542;52.832;13.816;2023-06-10T08:20:36;8.77;;;3.90;;
17253;SDS011;32542;52.832;13.816;2023-06-10T08:23:39;7.40;;;3.42;;
17253;SDS011;32542;52.832;13.816;2023-06-10T08:26:42;9.00;;;3.70;;
17253;SDS011;32542;52.832;13.816;2023-06-10T08:29:45;7.90;;;3.72;;
17253;SDS011;32542;52.832;13.816;2023-06-10T08:32:50;9.88;;;3.65;;
17253;SDS011;32542;52.832;13.816;2023-06-10T08:35:53;9.60;;;3.65;;
17253;SDS011;32542;52.832;13.816;2023-06-10T08:38:56;11.63;;;3.55;;
17253;SDS011;32542;52.832;13.816;2023-06-10T08:42:00;8.13;;;3.80;;
17253;SDS011;32542;52.832;13.816;2023-06-10T08:45:12;8.60;;;3.67;;
17253;SDS011;32542;52.832;13.816;2023-06-10T08:48:20;7.57;;;4.10;;
17253;SDS011;32542;52.832;13.816;2023-06-10T08:51:25;7.18;;;3.95;;
17253;SDS011;32542;52.832;13.816;2023-06-10T08:54:30;12.32;;;4.38;;
17253;SDS011;32542;52.832;13.816;2023-06-10T08:57:36;6.38;;;3.45;;
17253;SDS011;32542;52.832;13.816;2023-06-10T09:00:39;9.45;;;3.85;;
17253;SDS011;32542;52.832;13.816;2023-06-10T09:03:43;9.15;;;3.90;;
17253;SDS011;32542;52.832;13.816;2023-06-10T09:06:46;7.13;;;3.97;;
17253;SDS011;32542;52.832;13.816;2023-06-10T09:09:51;6.43;;;3.60;;
17253;SDS011;32542;52.832;13.816;2023-06-10T09:12:56;8.27;;;4.00;;
17253;SDS011;32542;52.832;13.816;2023-06-10T09:15:59;9.43;;;4.00;;
17253;SDS011;32542;52.832;13.816;2023-06-10T09:19:06;7.07;;;4.15;;
17253;SDS011;32542;52.832;13.816;2023-06-10T09:22:10;5.88;;;3.72;;
17253;SDS011;32542;52.832;13.816;2023-06-10T09:25:13;9.30;;;4.18;;
17253;SDS011;32542;52.832;13.816;2023-06-10T09:28:18;12.15;;;4.50;;
17253;SDS011;32542;52.832;13.816;2023-06-10T09:31:21;7.82;;;3.72;;
17253;SDS011;32542;52.832;13.816;2023-06-10T09:34:26;8.60;;;3.78;;
17253;SDS011;32542;52.832;13.816;2023-06-10T09:37:29;9.68;;;3.55;;
17253;SDS011;32542;52.832;13.816;2023-06-10T09:40:32;6.30;;;4.18;;
17253;SDS011;32542;52.832;13.816;2023-06-10T09:43:38;8.98;;;3.90;;
17253;SDS011;32542;52.832;13.816;2023-06-10T09:46:42;8.30;;;3.78;;
17253;SDS011;32542;52.832;13.816;2023-06-10T09:49:49;7.72;;;3.78;;
17253;SDS011;32542;52.832;13.816;2023-06-10T09:52:54;8.77;;;4.07;;
17253;SDS011;32542;52.832;13.816;2023-06-10T09:55:57;6.78;;;4.05;;
17253;SDS011;32542;52.832;13.816;2023-06-10T09:59:00;6.30;;;3.70;;
17253;SDS011;32542;52.832;13.816;2023-06-10T10:02:04;8.52;;;4.35;;
17253;SDS011;32542;52.832;13.816;2023-06-10T10:05:13;8.75;;;3.83;;
17253;SDS011;32542;52.832;13.816;2023-06-10T10:08:17;8.82;;;4.30;;
17253;SDS011;32542;52.832;13.816;2023-06-10T10:11:21;7.95;;;4.22;;
17253;SDS011;32542;52.832;13.816;2023-06-10T10:14:25;8.27;;;4.25;;
17253;SDS011;32542;52.832;13.816;2023-06-10T10:17:29;7.50;;;4.38;;
17253;SDS011;32542;52.832;13.816;2023-06-10T10:20:35;7.75;;;4.65;;
17253;SDS011;32542;52.832;13.816;2023-06-10T10:23:47;6.90;;;4.47;;
17253;SDS011;32542;52.832;13.816;2023-06-10T10:26:55;10.10;;;4.93;;
17253;SDS011;32542;52.832;13.816;2023-06-10T10:30:02;10.00;;;4.95;;
17253;SDS011;32542;52.832;13.816;2023-06-10T10:33:12;9.73;;;5.22;;
17253;SDS011;32542;52.832;13.816;2023-06-10T10:36:20;11.60;;;5.20;;
17253;SDS011;32542;52.832;13.816;2023-06-10T10:39:23;12.20;;;5.70;;
17253;SDS011;32542;52.832;13.816;2023-06-10T10:42:29;14.10;;;7.15;;
17253;SDS011;32542;52.832;13.816;2023-06-10T10:45:33;14.10;;;7.70;;
17253;SDS011;32542;52.832;13.816;2023-06-10T10:48:37;16.15;;;7.15;;
17253;SDS011;32542;52.832;13.816;2023-06-10T10:51:55;12.18;;;6.90;;
17253;SDS011;32542;52.832;13.816;2023-06-10T10:54:59;12.32;;;7.28;;
17253;SDS011;32542;52.832;13.816;2023-06-10T10:58:02;12.80;;;6.47;;
17253;SDS011;32542;52.832;13.816;2023-06-10T11:01:10;19.58;;;6.97;;
17253;SDS011;32542;52.832;13.816;2023-06-10T11:04:14;21.58;;;9.63;;
17253;SDS011;32542;52.832;13.816;2023-06-10T11:07:22;19.23;;;7.97;;
17253;SDS011;32542;52.832;13.816;2023-06-10T11:10:30;13.73;;;6.60;;
17253;SDS011;32542;52.832;13.816;2023-06-10T11:13:34;13.55;;;6.70;;
17253;SDS011;32542;52.832;13.816;2023-06-10T11:16:40;13.40;;;6.63;;
17253;SDS011;32542;52.832;13.816;2023-06-10T11:19:44;9.52;;;6.90;;
17253;SDS011;32542;52.832;13.816;2023-06-10T11:22:59;13.15;;;6.90;;
17253;SDS011;32542;52.832;13.816;2023-06-10T11:29:36;8.52;;;6.13;;
17253;SDS011;32542;52.832;13.816;2023-06-10T11:32:39;13.73;;;7.10;;
17253;SDS011;32542;52.832;13.816;2023-06-10T11:35:45;10.35;;;6.50;;
17253;SDS011;32542;52.832;13.816;2023-06-10T11:38:50;12.40;;;6.55;;
17253;SDS011;32542;52.832;13.816;2023-06-10T11:41:56;13.25;;;6.00;;
17253;SDS011;32542;52.832;13.816;2023-06-10T11:44:59;10.32;;;6.28;;
17253;SDS011;32542;52.832;13.816;2023-06-10T11:48:04;7.75;;;5.55;;
17253;SDS011;32542;52.832;13.816;2023-06-10T11:51:07;11.68;;;6.72;;
17253;SDS011;32542;52.832;13.816;2023-06-10T11:54:11;9.05;;;5.97;;
17253;SDS011;32542;52.832;13.816;2023-06-10T11:57:14;12.68;;;6.90;;
17253;SDS011;32542;52.832;13.816;2023-06-10T12:00:17;9.00;;;5.70;;
17253;SDS011;32542;52.832;13.816;2023-06-10T12:03:21;9.15;;;6.05;;
17253;SDS011;32542;52.832;13.816;2023-06-10T12:06:25;9.75;;;6.05;;
17253;SDS011;32542;52.832;13.816;2023-06-10T12:09:29;13.07;;;5.97;;
17253;SDS011;32542;52.832;13.816;2023-06-10T12:12:34;7.57;;;6.05;;
17253;SDS011;32542;52.832;13.816;2023-06-10T12:15:38;7.32;;;5.72;;
17253;SDS011;32542;52.832;13.816;2023-06-10T12:18:42;16.33;;;6.55;;
17253;SDS011;32542;52.832;13.816;2023-06-10T12:21:46;10.18;;;6.60;;
17253;SDS011;32542;52.832;13.816;2023-06-10T12:24:58;16.95;;;6.32;;
17253;SDS011;32542;52.832;13.816;2023-06-10T12:28:03;9.95;;;5.95;;
17253;SDS011;32542;52.832;13.816;2023-06-10T12:31:06;8.07;;;6.00;;
17253;SDS011;32542;52.832;13.816;2023-06-10T12:34:10;9.52;;;5.78;;
17253;SDS011;32542;52.832;13.816;2023-06-10T12:37:13;9.57;;;6.00;;
17253;SDS011;32542;52.832;13.816;2023-06-10T12:40:17;11.32;;;5.80;;
17253;SDS011;32542;52.832;13.816;2023-06-10T12:43:20;12.38;;;5.68;;
17253;SDS011;32542;52.832;13.816;2023-06-10T12:46:23;11.85;;;5.68;;
17253;SDS011;32542;52.832;13.816;2023-06-10T12:49:26;11.18;;;5.40;;
17253;SDS011;32542;52.832;13.816;2023-06-10T12:52:29;9.60;;;5.85;;
17253;SDS011;32542;52.832;13.816;2023-06-10T12:55:34;8.02;;;5.00;;
17253;SDS011;32542;52.832;13.816;2023-06-10T12:58:37;7.30;;;5.40;;
17253;SDS011;32542;52.832;13.816;2023-06-10T13:01:40;8.20;;;5.32;;
17253;SDS011;32542;52.832;13.816;2023-06-10T13:04:43;11.00;;;5.10;;
17253;SDS011;32542;52.832;13.816;2023-06-10T13:07:46;13.48;;;5.68;;
17253;SDS011;32542;52.832;13.816;2023-06-10T13:10:51;9.35;;;5.07;;
17253;SDS011;32542;52.832;13.816;2023-06-10T13:13:54;8.30;;;5.22;;
17253;SDS011;32542;52.832;13.816;2023-06-10T13:16:57;5.50;;;4.57;;
17253;SDS011;32542;52.832;13.816;2023-06-10T13:20:00;6.45;;;5.18;;
17253;SDS011;32542;52.832;13.816;2023-06-10T13:23:04;9.15;;;4.78;;
17253;SDS011;32542;52.832;13.816;2023-06-10T13:26:08;6.05;;;4.50;;
17253;SDS011;32542;52.832;13.816;2023-06-10T13:29:11;7.78;;;4.97;;
17253;SDS011;32542;52.832;13.816;2023-06-10T13:32:15;6.40;;;4.93;;
17253;SDS011;32542;52.832;13.816;2023-06-10T13:35:18;7.78;;;4.93;;
17253;SDS011;32542;52.832;13.816;2023-06-10T13:38:21;9.07;;;5.35;;
17253;SDS011;32542;52.832;13.816;2023-06-10T13:41:25;7.53;;;4.57;;
17253;SDS011;32542;52.832;13.816;2023-06-10T13:44:30;8.05;;;4.88;;
17253;SDS011;32542;52.832;13.816;2023-06-10T13:47:35;6.72;;;4.47;;
17253;SDS011;32542;52.832;13.816;2023-06-10T13:50:38;6.00;;;4.65;;
17253;SDS011;32542;52.832;13.816;2023-06-10T13:53:41;7.35;;;4.70;;
17253;SDS011;32542;52.832;13.816;2023-06-10T13:56:45;9.35;;;5.40;;
17253;SDS011;32542;52.832;13.816;2023-06-10T13:59:48;6.05;;;4.65;;
17253;SDS011;32542;52.832;13.816;2023-06-10T14:02:51;5.90;;;4.93;;
17253;SDS011;32542;52.832;13.816;2023-06-10T14:05:54;12.48;;;5.38;;
17253;SDS011;32542;52.832;13.816;2023-06-10T14:08:57;5.80;;;4.85;;
17253;SDS011;32542;52.832;13.816;2023-06-10T14:12:01;11.48;;;5.15;;
17253;SDS011;32542;52.832;13.816;2023-06-10T14:15:05;7.53;;;5.03;;
17253;SDS011;32542;52.832;13.816;2023-06-10T14:18:09;6.60;;;5.15;;
17253;SDS011;32542;52.832;13.816;2023-06-10T14:21:12;7.43;;;4.93;;
17253;SDS011;32542;52.832;13.816;2023-06-10T14:24:15;8.07;;;5.78;;
17253;SDS011;32542;52.832;13.816;2023-06-10T14:27:19;10.23;;;4.68;;
17253;SDS011;32542;52.832;13.816;2023-06-10T14:30:22;8.88;;;5.20;;
17253;SDS011;32542;52.832;13.816;2023-06-10T14:33:25;8.15;;;4.72;;
17253;SDS011;32542;52.832;13.816;2023-06-10T14:36:28;7.35;;;5.00;;
17253;SDS011;32542;52.832;13.816;2023-06-10T14:39:31;11.60;;;5.28;;
17253;SDS011;32542;52.832;13.816;2023-06-10T14:42:35;9.23;;;4.78;;
17253;SDS011;32542;52.832;13.816;2023-06-10T14:45:38;9.00;;;5.10;;
17253;SDS011;32542;52.832;13.816;2023-06-10T14:48:42;10.45;;;4.85;;
17253;SDS011;32542;52.832;13.816;2023-06-10T14:51:45;8.93;;;5.20;;
17253;SDS011;32542;52.832;13.816;2023-06-10T14:54:51;10.45;;;5.35;;
17253;SDS011;32542;52.832;13.816;2023-06-10T14:57:55;8.82;;;5.50;;
17253;SDS011;32542;52.832;13.816;2023-06-10T15:00:59;6.85;;;4.75;;
17253;SDS011;32542;52.832;13.816;2023-06-10T15:04:02;5.63;;;4.45;;
17253;SDS011;32542;52.832;13.816;2023-06-10T15:07:05;7.72;;;4.72;;
17253;SDS011;32542;52.832;13.816;2023-06-10T15:10:08;7.28;;;4.97;;
17253;SDS011;32542;52.832;13.816;2023-06-10T15:13:13;7.22;;;5.40;;
17253;SDS011;32542;52.832;13.816;2023-06-10T15:16:15;8.52;;;5.10;;
17253;SDS011;32542;52.832;13.816;2023-06-10T15:19:18;8.00;;;5.28;;
17253;SDS011;32542;52.832;13.816;2023-06-10T15:22:21;5.68;;;4.60;;
17253;SDS011;32542;52.832;13.816;2023-06-10T15:25:24;7.30;;;4.97;;
17253;SDS011;32542;52.832;13.816;2023-06-10T15:28:33;7.28;;;4.75;;
17253;SDS011;32542;52.832;13.816;2023-06-10T15:31:36;6.47;;;5.20;;
17253;SDS011;32542;52.832;13.816;2023-06-10T15:34:40;8.88;;;5.45;;
17253;SDS011;32542;52.832;13.816;2023-06-10T15:37:43;10.02;;;5.32;;
17253;SDS011;32542;52.832;13.816;2023-06-10T15:40:46;7.95;;;5.28;;
17253;SDS011;32542;52.832;13.816;2023-06-10T15:43:50;11.10;;;6.00;;
17253;SDS011;32542;52.832;13.816;2023-06-10T15:46:53;7.28;;;4.65;;
17253;SDS011;32542;52.832;13.816;2023-06-10T15:49:55;9.23;;;4.70;;
17253;SDS011;32542;52.832;13.816;2023-06-10T15:52:58;6.07;;;4.00;;
17253;SDS011;32542;52.832;13.816;2023-06-10T15:56:01;12.02;;;4.30;;
17253;SDS011;32542;52.832;13.816;2023-06-10T15:59:06;10.40;;;4.18;;
17253;SDS011;32542;52.832;13.816;2023-06-10T16:02:10;6.53;;;4.13;;
17253;SDS011;32542;52.832;13.816;2023-06-10T16:05:13;8.13;;;4.20;;
17253;SDS011;32542;52.832;13.816;2023-06-10T16:08:16;7.80;;;4.30;;
17253;SDS011;32542;52.832;13.816;2023-06-10T16:11:19;7.43;;;3.90;;
17253;SDS011;32542;52.832;13.816;2023-06-10T16:14:24;4.97;;;3.75;;
17253;SDS011;32542;52.832;13.816;2023-06-10T16:17:27;5.43;;;3.95;;
17253;SDS011;32542;52.832;13.816;2023-06-10T16:20:30;6.95;;;3.88;;
17253;SDS011;32542;52.832;13.816;2023-06-10T16:23:36;8.90;;;4.13;;
17253;SDS011;32542;52.832;13.816;2023-06-10T16:26:40;4.97;;;3.70;;
17253;SDS011;32542;52.832;13.816;2023-06-10T16:29:44;7.80;;;3.75;;
17253;SDS011;32542;52.832;13.816;2023-06-10T16:32:47;6.22;;;3.78;;
17253;SDS011;32542;52.832;13.816;2023-06-10T16:35:50;5.70;;;3.90;;
17253;SDS011;32542;52.832;13.816;2023-06-10T16:38:53;7.03;;;4.07;;
17253;SDS011;32542;52.832;13.816;2023-06-10T16:41:56;6.05;;;3.63;;
17253;SDS011;32542;52.832;13.816;2023-06-10T16:45:01;5.82;;;4.25;;
17253;SDS011;32542;52.832;13.816;2023-06-10T16:48:04;5.18;;;3.92;;
17253;SDS011;32542;52.832;13.816;2023-06-10T16:51:07;10.07;;;4.35;;
17253;SDS011;32542;52.832;13.816;2023-06-10T16:54:10;6.40;;;3.88;;
17253;SDS011;32542;52.832;13.816;2023-06-10T16:57:13;4.53;;;3.80;;
17253;SDS011;32542;52.832;13.816;2023-06-10T17:00:18;6.70;;;3.33;;
17253;SDS011;32542;52.832;13.816;2023-06-10T17:03:21;4.35;;;3.60;;
17253;SDS011;32542;52.832;13.816;2023-06-10T17:06:24;6.20;;;3.75;;
17253;SDS011;32542;52.832;13.816;2023-06-10T17:09:27;6.40;;;3.97;;
17253;SDS011;32542;52.832;13.816;2023-06-10T17:12:30;9.27;;;4.13;;
17253;SDS011;32542;52.832;13.816;2023-06-10T17:15:34;6.82;;;3.92;;
17253;SDS011;32542;52.832;13.816;2023-06-10T17:18:37;6.93;;;4.03;;
17253;SDS011;32542;52.832;13.816;2023-06-10T17:21:40;7.30;;;3.72;;
17253;SDS011;32542;52.832;13.816;2023-06-10T17:24:43;7.57;;;3.95;;
17253;SDS011;32542;52.832;13.816;2023-06-10T17:27:46;12.10;;;3.75;;
17253;SDS011;32542;52.832;13.816;2023-06-10T17:30:50;6.00;;;3.35;;
17253;SDS011;32542;52.832;13.816;2023-06-10T17:33:53;6.53;;;3.88;;
17253;SDS011;32542;52.832;13.816;2023-06-10T17:36:57;5.95;;;3.90;;
17253;SDS011;32542;52.832;13.816;2023-06-10T17:39:59;5.57;;;3.63;;
17253;SDS011;32542;52.832;13.816;2023-06-10T17:43:02;7.30;;;3.55;;
17253;SDS011;32542;52.832;13.816;2023-06-10T17:46:07;5.88;;;3.50;;
17253;SDS011;32542;52.832;13.816;2023-06-10T17:49:10;7.53;;;3.45;;
17253;SDS011;32542;52.832;13.816;2023-06-10T17:52:13;9.25;;;3.70;;
17253;SDS011;32542;52.832;13.816;2023-06-10T17:55:16;5.82;;;3.55;;
17253;SDS011;32542;52.832;13.816;2023-06-10T17:58:19;11.05;;;4.55;;
17253;SDS011;32542;52.832;13.816;2023-06-10T18:01:23;7.50;;;3.92;;
17253;SDS011;32542;52.832;13.816;2023-06-10T18:04:26;6.82;;;3.70;;
17253;SDS011;32542;52.832;13.816;2023-06-10T18:07:29;8.05;;;3.72;;
17253;SDS011;32542;52.832;13.816;2023-06-10T18:10:32;8.63;;;4.00;;
17253;SDS011;32542;52.832;13.816;2023-06-10T18:13:35;9.65;;;4.13;;
17253;SDS011;32542;52.832;13.816;2023-06-10T18:16:39;4.90;;;3.67;;